createdAt,value
2023-02-14T00:02:21.515Z,5.84
2023-02-14T00:05:25.347Z,5.72
2023-02-14T00:08:28.974Z,6.01
2023-02-14T00:11:32.957Z,6.16
2023-02-14T00:14:55.719Z,6.14
2023-02-14T00:18:00.961Z,6.20
2023-02-14T00:21:04.782Z,6.33
2023-02-14T00:24:11.710Z,6.33
2023-02-14T00:27:15.334Z,6.16
2023-02-14T00:30:20.632Z,6.05
2023-02-14T00:33:24.594Z,6.10
2023-02-14T00:36:28.848Z,6.16
2023-02-14T00:39:32.581Z,6.01
2023-02-14T00:42:36.572Z,5.97
2023-02-14T00:45:41.624Z,5.92
2023-02-14T00:48:45.339Z,6.31
2023-02-14T00:51:48.937Z,5.91
2023-02-14T00:54:52.483Z,6.41
2023-02-14T00:57:56.192Z,6.43
2023-02-14T01:01:02.072Z,6.51
2023-02-14T01:04:06.357Z,6.65
2023-02-14T01:07:10.149Z,6.52
2023-02-14T01:10:14.567Z,6.41
2023-02-14T01:13:19.017Z,6.57
2023-02-14T01:16:26.014Z,6.74
2023-02-14T01:19:31.736Z,6.75
2023-02-14T01:22:37.897Z,6.76
2023-02-14T01:25:41.700Z,6.59
2023-02-14T01:28:47.474Z,6.63
2023-02-14T01:31:52.608Z,6.58
2023-02-14T01:34:56.348Z,6.47
2023-02-14T01:37:59.975Z,6.09
2023-02-14T01:41:03.651Z,6.24
2023-02-14T01:44:09.280Z,6.34
2023-02-14T01:47:15.603Z,6.22
2023-02-14T01:50:24.233Z,6.24
2023-02-14T01:53:30.225Z,6.21
2023-02-14T01:56:39.595Z,6.34
2023-02-14T01:59:48.454Z,6.40
2023-02-14T02:02:53.912Z,6.08
2023-02-14T02:06:05.115Z,5.94
2023-02-14T02:09:16.010Z,6.34
2023-02-14T02:12:19.718Z,6.41
2023-02-14T02:15:28.034Z,6.30
2023-02-14T02:18:48.188Z,6.29
2023-02-14T02:22:25.928Z,6.33
2023-02-14T02:25:49.171Z,6.40
2023-02-14T02:29:21.072Z,6.42
2023-02-14T02:33:14.336Z,6.55
2023-02-14T02:36:51.947Z,6.26
2023-02-14T02:40:12.390Z,6.50
2023-02-14T02:43:27.302Z,6.55
2023-02-14T02:46:50.138Z,6.71
2023-02-14T02:50:17.552Z,6.75
2023-02-14T02:53:29.060Z,6.71
2023-02-14T02:56:47.506Z,6.73
2023-02-14T02:59:53.948Z,6.44
2023-02-14T03:03:16.977Z,6.58
2023-02-14T03:06:20.574Z,6.64
2023-02-14T03:09:57.714Z,6.35
2023-02-14T03:13:38.344Z,6.16
2023-02-14T03:16:56.703Z,6.05
2023-02-14T03:20:13.765Z,6.33
2023-02-14T03:23:23.394Z,6.00
2023-02-14T03:26:36.933Z,6.02
2023-02-14T03:29:54.824Z,5.84
2023-02-14T03:33:04.671Z,5.95
2023-02-14T03:36:14.168Z,5.76
2023-02-14T03:39:23.414Z,5.94
2023-02-14T03:42:33.994Z,5.67
2023-02-14T03:45:44.582Z,6.03
2023-02-14T03:48:51.989Z,5.87
2023-02-14T03:52:00.313Z,5.71
2023-02-14T03:55:06.350Z,5.82
2023-02-14T03:58:18.364Z,5.69
2023-02-14T04:01:25.436Z,5.87
2023-02-14T04:04:32.445Z,5.96
2023-02-14T04:07:46.922Z,5.80
2023-02-14T04:10:51.074Z,5.79
2023-02-14T04:13:56.512Z,6.03
2023-02-14T04:17:17.242Z,6.12
2023-02-14T04:20:21.395Z,5.98
2023-02-14T04:23:25.133Z,6.02
2023-02-14T04:26:28.834Z,5.86
2023-02-14T04:29:33.980Z,5.98
2023-02-14T04:32:37.703Z,6.01
2023-02-14T04:35:41.311Z,5.98
2023-02-14T04:38:45.589Z,6.02
2023-02-14T04:41:49.174Z,5.72
2023-02-14T04:44:54.235Z,5.93
2023-02-14T04:47:57.829Z,5.85
2023-02-14T04:51:01.720Z,5.97
2023-02-14T04:54:05.613Z,6.03
2023-02-14T04:57:09.299Z,6.01
2023-02-14T05:00:16.029Z,5.81
2023-02-14T05:03:19.722Z,6.05
2023-02-14T05:06:23.308Z,5.78
2023-02-14T05:09:26.957Z,5.84
2023-02-14T05:12:30.601Z,5.68
2023-02-14T05:15:38.306Z,5.65
2023-02-14T05:18:42.389Z,5.67
2023-02-14T05:21:46.187Z,5.77
2023-02-14T05:24:49.861Z,5.81
2023-02-14T05:27:53.504Z,5.85
2023-02-14T05:30:59.194Z,5.86
2023-02-14T05:34:03.027Z,5.82
2023-02-14T05:37:06.674Z,5.77
2023-02-14T05:40:13.726Z,5.90
2023-02-14T05:43:17.397Z,5.72
2023-02-14T05:46:22.448Z,5.87
2023-02-14T05:49:25.980Z,5.78
2023-02-14T05:52:29.838Z,5.82
2023-02-14T05:55:33.475Z,5.72
2023-02-14T05:58:37.405Z,5.86
2023-02-14T06:01:42.616Z,5.75
2023-02-14T06:04:46.402Z,5.91
2023-02-14T06:07:51.643Z,5.96
2023-02-14T06:10:55.455Z,6.12
2023-02-14T06:13:59.803Z,6.32
2023-02-14T06:17:05.098Z,6.66
2023-02-14T06:20:10.956Z,6.90
2023-02-14T06:23:14.864Z,6.85
2023-02-14T06:26:18.655Z,7.40
2023-02-14T06:29:22.444Z,7.57
2023-02-14T06:32:27.752Z,7.79
2023-02-14T06:35:31.424Z,7.92
2023-02-14T06:38:35.216Z,8.09
2023-02-14T06:41:38.974Z,8.32
2023-02-14T06:44:42.793Z,8.36
2023-02-14T06:47:48.333Z,8.44
2023-02-14T06:50:52.516Z,8.60
2023-02-14T06:53:56.237Z,8.69
2023-02-14T06:57:00.054Z,8.61
2023-02-14T07:00:04.503Z,8.91
2023-02-14T07:03:10.104Z,9.34
2023-02-14T07:06:13.923Z,9.23
2023-02-14T07:09:18.568Z,9.46
2023-02-14T07:12:22.413Z,9.70
2023-02-14T07:15:26.262Z,9.99
2023-02-14T07:18:31.542Z,10.06
2023-02-14T07:21:35.333Z,10.29
2023-02-14T07:24:39.123Z,9.86
2023-02-14T07:27:42.966Z,10.16
2023-02-14T07:30:46.883Z,10.34
2023-02-14T07:33:52.440Z,10.39
2023-02-14T07:36:56.263Z,10.61
2023-02-14T07:40:00.040Z,9.98
2023-02-14T07:43:03.849Z,10.40
2023-02-14T07:46:08.725Z,10.45
2023-02-14T07:49:13.972Z,10.86
2023-02-14T07:52:17.842Z,10.56
2023-02-14T07:55:21.703Z,10.72
2023-02-14T07:58:25.533Z,10.82
2023-02-14T08:01:29.420Z,11.26
2023-02-14T08:04:34.822Z,11.44
2023-02-14T08:07:38.613Z,11.58
2023-02-14T08:10:43.782Z,11.52
2023-02-14T08:13:47.572Z,11.83
2023-02-14T08:16:51.394Z,11.75
2023-02-14T08:19:56.587Z,11.49
2023-02-14T08:23:00.341Z,11.76
2023-02-14T08:26:05.096Z,11.66
2023-02-14T08:29:08.930Z,11.60
2023-02-14T08:32:12.977Z,11.66
2023-02-14T08:35:18.405Z,12.04
2023-02-14T08:38:22.604Z,11.99
2023-02-14T08:41:26.786Z,11.97
2023-02-14T08:44:30.566Z,11.82
2023-02-14T08:47:36.206Z,12.03
2023-02-14T08:50:42.266Z,12.26
2023-02-14T08:53:46.630Z,12.34
2023-02-14T08:56:50.505Z,12.95
2023-02-14T08:59:54.338Z,12.91
2023-02-14T09:02:58.203Z,12.73
2023-02-14T09:06:06.257Z,12.81
2023-02-14T09:09:10.079Z,13.21
2023-02-14T09:12:13.868Z,13.03
2023-02-14T09:15:17.853Z,13.27
2023-02-14T09:18:21.964Z,13.51
2023-02-14T09:21:29.028Z,13.83
2023-02-14T09:24:34.352Z,13.21
2023-02-14T09:27:38.132Z,13.73
2023-02-14T09:30:41.968Z,13.69
2023-02-14T09:34:04.449Z,13.39
2023-02-14T09:37:12.258Z,13.11
2023-02-14T09:40:20.698Z,12.99
2023-02-14T09:43:32.416Z,12.99
2023-02-14T09:46:44.657Z,12.95
2023-02-14T09:49:50.616Z,13.10
2023-02-14T09:52:59.330Z,13.57
2023-02-14T09:56:11.911Z,13.54
2023-02-14T09:59:21.097Z,13.63
2023-02-14T10:02:45.277Z,13.62
2023-02-14T10:05:59.208Z,13.77
2023-02-14T10:09:14.480Z,13.61
2023-02-14T10:12:24.730Z,13.77
2023-02-14T10:15:33.130Z,14.12
2023-02-14T10:18:42.361Z,14.13
2023-02-14T10:21:53.718Z,14.21
2023-02-14T10:25:03.436Z,14.47
2023-02-14T10:28:15.831Z,13.92
2023-02-14T10:31:23.365Z,14.51
2023-02-14T10:34:36.298Z,14.74
2023-02-14T10:37:52.771Z,14.79
2023-02-14T10:41:33.254Z,14.49
2023-02-14T10:44:47.358Z,14.62
2023-02-14T10:48:00.216Z,14.27
2023-02-14T10:51:08.212Z,14.07
2023-02-14T10:54:21.947Z,14.29
2023-02-14T10:57:31.917Z,14.57
2023-02-14T11:00:39.473Z,14.52
2023-02-14T11:03:54.068Z,14.23
2023-02-14T11:06:58.088Z,14.30
2023-02-14T11:10:03.097Z,14.24
2023-02-14T11:13:28.924Z,14.47
2023-02-14T11:16:35.090Z,14.73
2023-02-14T11:19:39.201Z,15.00
2023-02-14T11:22:42.969Z,15.20
2023-02-14T11:25:53.022Z,15.28
2023-02-14T11:29:00.900Z,15.29
2023-02-14T11:32:12.329Z,15.13
2023-02-14T11:35:24.561Z,15.23
2023-02-14T11:38:32.076Z,15.38
2023-02-14T11:41:54.720Z,14.98
2023-02-14T11:44:59.991Z,14.97
2023-02-14T11:48:37.272Z,14.98
2023-02-14T11:51:45.715Z,15.24
2023-02-14T11:54:50.528Z,14.76
2023-02-14T11:57:55.090Z,14.77
2023-02-14T12:01:02.261Z,14.70
2023-02-14T12:04:15.213Z,14.75
2023-02-14T12:07:23.201Z,14.34
2023-02-14T12:10:29.512Z,14.45
2023-02-14T12:13:34.592Z,14.33
2023-02-14T12:16:47.474Z,14.20
2023-02-14T12:19:56.964Z,14.09
2023-02-14T12:23:07.543Z,14.19
2023-02-14T12:26:19.343Z,14.00
2023-02-14T12:29:27.581Z,14.32
2023-02-14T12:32:34.181Z,14.21
2023-02-14T12:35:48.891Z,13.99
2023-02-14T12:39:04.278Z,14.08
2023-02-14T12:42:23.862Z,13.81
2023-02-14T12:45:52.326Z,13.42
2023-02-14T12:49:16.268Z,12.73
2023-02-14T12:53:09.329Z,12.62
2023-02-14T12:56:23.680Z,12.47
2023-02-14T12:59:36.250Z,12.91
2023-02-14T13:02:58.057Z,12.57
2023-02-14T13:06:11.882Z,12.54
2023-02-14T13:09:27.677Z,12.60
2023-02-14T13:12:38.610Z,12.42
2023-02-14T13:15:52.148Z,12.34
2023-02-14T13:19:03.811Z,12.12
2023-02-14T13:22:14.370Z,12.39
2023-02-14T13:25:31.580Z,12.71
2023-02-14T13:28:37.917Z,12.57
2023-02-14T13:31:43.111Z,12.47
2023-02-14T13:34:48.695Z,12.46
2023-02-14T13:37:56.947Z,12.77
2023-02-14T13:41:05.651Z,12.62
2023-02-14T13:44:09.836Z,12.46
2023-02-14T13:47:21.566Z,12.26
2023-02-14T13:50:25.581Z,12.26
2023-02-14T13:53:36.901Z,12.03
2023-02-14T13:56:40.886Z,12.15
2023-02-14T13:59:44.716Z,12.14
2023-02-14T14:02:53.856Z,11.96
2023-02-14T14:06:04.980Z,12.05
2023-02-14T14:09:12.315Z,12.08
2023-02-14T14:12:54.628Z,12.04
2023-02-14T14:16:27.900Z,11.83
2023-02-14T14:19:41.196Z,11.99
2023-02-14T14:22:49.391Z,11.76
2023-02-14T14:25:54.686Z,11.59
2023-02-14T14:28:58.588Z,11.49
2023-02-14T14:32:10.983Z,11.56
2023-02-14T14:35:21.005Z,11.54
2023-02-14T14:38:26.108Z,11.39
2023-02-14T14:41:32.909Z,11.31
2023-02-14T14:44:37.745Z,11.21
2023-02-14T14:47:45.120Z,10.89
2023-02-14T14:50:50.678Z,11.00
2023-02-14T14:53:58.375Z,10.73
2023-02-14T14:57:04.972Z,10.64
2023-02-14T15:00:27.406Z,10.54
2023-02-14T15:03:32.253Z,10.13
2023-02-14T15:06:36.014Z,10.19
2023-02-14T15:09:42.773Z,10.13
2023-02-14T15:13:06.475Z,9.98
2023-02-14T15:16:10.349Z,9.95
2023-02-14T15:19:21.158Z,9.73
2023-02-14T15:22:29.756Z,9.69
2023-02-14T15:25:35.678Z,9.58
2023-02-14T15:28:40.877Z,9.57
2023-02-14T15:31:44.785Z,9.49
2023-02-14T15:34:50.115Z,9.40
2023-02-14T15:37:54.489Z,9.35
2023-02-14T15:40:59.670Z,9.37
2023-02-14T15:44:05.319Z,9.38
2023-02-14T15:47:09.189Z,9.29
2023-02-14T15:50:16.972Z,9.47
2023-02-14T15:53:36.204Z,9.30
2023-02-14T15:56:46.939Z,9.29
2023-02-14T15:59:52.465Z,9.21
2023-02-14T16:03:00.774Z,9.10
2023-02-14T16:06:06.459Z,9.14
2023-02-14T16:09:26.641Z,9.06
2023-02-14T16:12:35.823Z,8.91
2023-02-14T16:15:46.148Z,8.78
2023-02-14T16:18:53.296Z,8.89
2023-02-14T16:21:57.832Z,8.86
2023-02-14T16:25:02.284Z,8.95
2023-02-14T16:28:06.323Z,8.42
2023-02-14T16:31:17.947Z,8.58
2023-02-14T16:34:22.106Z,8.62
2023-02-14T16:37:29.685Z,8.65
2023-02-14T16:40:33.820Z,8.69
2023-02-14T16:43:38.449Z,8.71
2023-02-14T16:46:44.176Z,8.58
2023-02-14T16:49:48.015Z,8.58
2023-02-14T16:52:53.830Z,8.72
2023-02-14T16:55:59.125Z,8.63
2023-02-14T16:59:02.905Z,8.54
2023-02-14T17:02:08.298Z,8.60
2023-02-14T17:05:12.228Z,8.44
2023-02-14T17:08:17.086Z,8.11
2023-02-14T17:11:21.579Z,8.12
2023-02-14T17:14:29.937Z,8.15
2023-02-14T17:17:35.980Z,8.04
2023-02-14T17:20:40.190Z,8.15
2023-02-14T17:23:43.941Z,8.07
2023-02-14T17:26:47.778Z,8.03
2023-02-14T17:29:52.504Z,8.16
2023-02-14T17:32:57.910Z,7.99
2023-02-14T17:36:06.943Z,7.91
2023-02-14T17:39:10.628Z,7.87
2023-02-14T17:42:14.515Z,7.79
2023-02-14T17:45:18.451Z,7.71
2023-02-14T17:48:24.149Z,7.94
2023-02-14T17:51:27.898Z,8.03
2023-02-14T17:54:31.599Z,7.91
2023-02-14T17:57:35.842Z,7.82
2023-02-14T18:00:39.655Z,7.84
2023-02-14T18:03:45.213Z,7.91
2023-02-14T18:06:48.853Z,7.84
2023-02-14T18:09:52.591Z,7.90
2023-02-14T18:12:56.354Z,7.77
2023-02-14T18:16:03.509Z,7.77
2023-02-14T18:19:10.253Z,7.84
2023-02-14T18:22:14.262Z,7.78
2023-02-14T18:25:18.192Z,7.59
2023-02-14T18:28:23.207Z,7.72
2023-02-14T18:31:27.877Z,7.62
2023-02-14T18:34:33.172Z,7.55
2023-02-14T18:37:36.917Z,7.49
2023-02-14T18:40:41.486Z,7.50
2023-02-14T18:43:45.492Z,7.57
2023-02-14T18:46:49.265Z,7.70
2023-02-14T18:49:54.520Z,7.50
2023-02-14T18:52:58.364Z,7.55
2023-02-14T18:56:05.636Z,7.57
2023-02-14T18:59:11.666Z,7.59
2023-02-14T19:02:15.639Z,7.50
2023-02-14T19:05:20.977Z,7.54
2023-02-14T19:08:24.723Z,7.51
2023-02-14T19:11:31.761Z,7.61
2023-02-14T19:14:35.820Z,7.55
2023-02-14T19:17:40.030Z,7.55
2023-02-14T19:20:45.341Z,7.70
2023-02-14T19:23:49.577Z,7.54
2023-02-14T19:26:54.773Z,7.58
2023-02-14T19:29:58.475Z,7.63
2023-02-14T19:33:02.294Z,7.65
2023-02-14T19:36:09.522Z,7.59
2023-02-14T19:39:14.204Z,7.47
2023-02-14T19:42:18.012Z,7.30
2023-02-14T19:45:22.161Z,7.39
2023-02-14T19:48:26.041Z,7.36
2023-02-14T19:51:34.136Z,7.26
2023-02-14T19:54:39.859Z,7.43
2023-02-14T19:57:43.842Z,7.37
2023-02-14T20:00:47.608Z,7.48
2023-02-14T20:03:51.442Z,7.43
2023-02-14T20:06:57.486Z,7.39
2023-02-14T20:10:01.282Z,7.45
2023-02-14T20:13:05.034Z,7.30
2023-02-14T20:16:12.310Z,7.38
2023-02-14T20:19:18.509Z,7.60
2023-02-14T20:22:23.898Z,7.47
2023-02-14T20:25:27.628Z,7.22
2023-02-14T20:28:31.461Z,7.43
2023-02-14T20:31:36.308Z,7.55
2023-02-14T20:34:40.449Z,7.60
2023-02-14T20:37:45.778Z,7.35
2023-02-14T20:40:49.507Z,7.21
2023-02-14T20:43:53.677Z,7.23
2023-02-14T20:46:59.747Z,7.27
2023-02-14T20:50:03.749Z,7.17
2023-02-14T20:53:09.058Z,7.13
2023-02-14T20:56:14.618Z,7.18
2023-02-14T20:59:24.557Z,7.30
2023-02-14T21:02:28.408Z,7.22
2023-02-14T21:05:32.242Z,7.25
2023-02-14T21:08:38.804Z,7.24
2023-02-14T21:11:42.717Z,7.15
2023-02-14T21:14:46.475Z,7.09
2023-02-14T21:17:50.264Z,7.10
2023-02-14T21:20:54.781Z,7.02
2023-02-14T21:24:01.276Z,6.99
2023-02-14T21:27:05.192Z,7.08
2023-02-14T21:30:10.149Z,7.01
2023-02-14T21:33:15.740Z,7.01
2023-02-14T21:36:20.829Z,6.91
2023-02-14T21:39:28.121Z,7.07
2023-02-14T21:42:31.984Z,7.15
2023-02-14T21:45:52.892Z,7.14
2023-02-14T21:49:15.494Z,7.11
2023-02-14T21:52:19.387Z,6.97
2023-02-14T21:55:24.586Z,7.09
2023-02-14T21:58:28.402Z,7.00
2023-02-14T22:01:33.913Z,7.06
2023-02-14T22:04:38.322Z,7.09
2023-02-14T22:07:42.112Z,6.93
2023-02-14T22:10:47.347Z,7.17
2023-02-14T22:13:51.657Z,7.08
2023-02-14T22:16:55.448Z,7.06
2023-02-14T22:19:59.222Z,7.08
2023-02-14T22:23:03.101Z,7.11
2023-02-14T22:26:16.686Z,7.01
2023-02-14T22:29:20.693Z,7.03
2023-02-14T22:32:24.616Z,7.08
2023-02-14T22:35:28.440Z,7.11
2023-02-14T22:38:32.239Z,7.20
2023-02-14T22:41:38.108Z,6.86
2023-02-14T22:44:42.041Z,7.17
2023-02-14T22:47:45.898Z,6.96
2023-02-14T22:50:49.677Z,6.98
2023-02-14T22:53:56.217Z,7.03
2023-02-14T22:57:01.451Z,6.99
2023-02-14T23:00:11.923Z,7.24
2023-02-14T23:03:16.027Z,7.22
2023-02-14T23:06:19.817Z,7.23
2023-02-14T23:09:24.328Z,7.26
2023-02-14T23:12:47.107Z,6.89
2023-02-14T23:16:11.897Z,6.91
2023-02-14T23:19:35.040Z,6.83
2023-02-14T23:22:41.098Z,6.95
2023-02-14T23:25:44.906Z,6.78
2023-02-14T23:28:50.176Z,6.91
2023-02-14T23:31:54.120Z,6.53
2023-02-14T23:34:59.306Z,6.63
2023-02-14T23:38:03.173Z,6.41
2023-02-14T23:41:28.257Z,6.62
2023-02-14T23:44:33.694Z,6.59
2023-02-14T23:47:37.461Z,6.28
2023-02-14T23:50:41.335Z,6.59
2023-02-14T23:53:45.108Z,6.39
2023-02-14T23:56:48.992Z,6.28
2023-02-14T23:59:54.381Z,6.23
